sensor_id;sensor_type;location;lat;lon;timestamp;P1;P2;P0
36453;PMS5003;22478;51.740;-1.314;2024-01-06T00:02:08;10;10;
36453;PMS5003;22478;51.740;-1.314;2024-01-06T00:04:35;9;9;
36453;PMS5003;22478;51.740;-1.314;2024-01-06T00:07:02;9;9;
36453;PMS5003;22478;51.740;-1.314;2024-01-06T00:09:30;10;9;
36453;PMS5003;22478;51.740;-1.314;2024-01-06T00:11:56;11;10;
36453;PMS5003;22478;51.740;-1.314;2024-01-06T00:14:23;9;8;
36453;PMS5003;22478;51.740;-1.314;2024-01-06T00:16:50;11;8;
36453;PMS5003;22478;51.740;-1.314;2024-01-06T00:19:17;9;8;
36453;PMS5003;22478;51.740;-1.314;2024-01-06T00:21:44;9;8;
36453;PMS5003;22478;51.740;-1.314;2024-01-06T00:24:12;9;9;
36453;PMS5003;22478;51.740;-1.314;2024-01-06T00:26:39;8;7;
36453;PMS5003;22478;51.740;-1.314;2024-01-06T00:29:06;12;11;
36453;PMS5003;22478;51.740;-1.314;2024-01-06T00:31:33;10;9;
36453;PMS5003;22478;51.740;-1.314;2024-01-06T00:34:01;11;11;
36453;PMS5003;22478;51.740;-1.314;2024-01-06T00:36:28;8;7;
36453;PMS5003;22478;51.740;-1.314;2024-01-06T00:38:55;11;9;
36453;PMS5003;22478;51.740;-1.314;2024-01-06T00:41:22;10;8;
36453;PMS5003;22478;51.740;-1.314;2024-01-06T00:43:50;5;5;
36453;PMS5003;22478;51.740;-1.314;2024-01-06T00:46:17;9;8;
36453;PMS5003;22478;51.740;-1.314;2024-01-06T00:48:44;11;8;
36453;PMS5003;22478;51.740;-1.314;2024-01-06T00:51:11;8;7;
36453;PMS5003;22478;51.740;-1.314;2024-01-06T00:53:38;10;8;
36453;PMS5003;22478;51.740;-1.314;2024-01-06T00:56:06;8;6;
36453;PMS5003;22478;51.740;-1.314;2024-01-06T00:58:33;10;8;
36453;PMS5003;22478;51.740;-1.314;2024-01-06T01:01:00;6;6;
36453;PMS5003;22478;51.740;-1.314;2024-01-06T01:03:27;8;7;
36453;PMS5003;22478;51.740;-1.314;2024-01-06T01:05:54;10;9;
36453;PMS5003;22478;51.740;-1.314;2024-01-06T01:08:21;9;9;
36453;PMS5003;22478;51.740;-1.314;2024-01-06T01:10:48;6;6;
36453;PMS5003;22478;51.740;-1.314;2024-01-06T01:13:15;7;5;
36453;PMS5003;22478;51.740;-1.314;2024-01-06T01:15:42;8;8;
36453;PMS5003;22478;51.740;-1.314;2024-01-06T01:18:10;12;7;
36453;PMS5003;22478;51.740;-1.314;2024-01-06T01:20:37;7;6;
36453;PMS5003;22478;51.740;-1.314;2024-01-06T01:23:04;11;8;
36453;PMS5003;22478;51.740;-1.314;2024-01-06T01:25:31;10;7;
36453;PMS5003;22478;51.740;-1.314;2024-01-06T01:27:58;7;7;
36453;PMS5003;22478;51.740;-1.314;2024-01-06T01:30:25;9;7;
36453;PMS5003;22478;51.740;-1.314;2024-01-06T01:32:53;7;6;
36453;PMS5003;22478;51.740;-1.314;2024-01-06T01:35:20;6;6;
36453;PMS5003;22478;51.740;-1.314;2024-01-06T01:37:48;8;8;
36453;PMS5003;22478;51.740;-1.314;2024-01-06T01:40:15;9;7;
36453;PMS5003;22478;51.740;-1.314;2024-01-06T01:42:42;9;9;
36453;PMS5003;22478;51.740;-1.314;2024-01-06T01:45:10;8;8;
36453;PMS5003;22478;51.740;-1.314;2024-01-06T01:47:37;8;8;
36453;PMS5003;22478;51.740;-1.314;2024-01-06T01:50:05;8;7;
36453;PMS5003;22478;51.740;-1.314;2024-01-06T01:52:34;10;10;
36453;PMS5003;22478;51.740;-1.314;2024-01-06T01:55:02;8;8;
36453;PMS5003;22478;51.740;-1.314;2024-01-06T01:57:30;8;8;
36453;PMS5003;22478;51.740;-1.314;2024-01-06T01:59:57;6;6;
36453;PMS5003;22478;51.740;-1.314;2024-01-06T02:02:27;13;10;
36453;PMS5003;22478;51.740;-1.314;2024-01-06T02:04:55;9;9;
36453;PMS5003;22478;51.740;-1.314;2024-01-06T02:07:22;9;8;
36453;PMS5003;22478;51.740;-1.314;2024-01-06T02:09:49;8;8;
36453;PMS5003;22478;51.740;-1.314;2024-01-06T02:12:17;11;9;
36453;PMS5003;22478;51.740;-1.314;2024-01-06T02:14:44;11;8;
36453;PMS5003;22478;51.740;-1.314;2024-01-06T02:17:11;10;8;
36453;PMS5003;22478;51.740;-1.314;2024-01-06T02:19:38;9;9;
36453;PMS5003;22478;51.740;-1.314;2024-01-06T02:22:05;9;8;
36453;PMS5003;22478;51.740;-1.314;2024-01-06T02:24:33;10;8;
36453;PMS5003;22478;51.740;-1.314;2024-01-06T02:27:00;10;8;
36453;PMS5003;22478;51.740;-1.314;2024-01-06T02:29:28;10;10;
36453;PMS5003;22478;51.740;-1.314;2024-01-06T02:31:55;9;9;
36453;PMS5003;22478;51.740;-1.314;2024-01-06T02:34:22;13;10;
36453;PMS5003;22478;51.740;-1.314;2024-01-06T02:36:49;14;11;
36453;PMS5003;22478;51.740;-1.314;2024-01-06T02:39:16;11;10;
36453;PMS5003;22478;51.740;-1.314;2024-01-06T02:41:43;9;9;
36453;PMS5003;22478;51.740;-1.314;2024-01-06T02:44:10;10;10;
36453;PMS5003;22478;51.740;-1.314;2024-01-06T02:46:38;9;8;
36453;PMS5003;22478;51.740;-1.314;2024-01-06T02:49:05;12;12;
36453;PMS5003;22478;51.740;-1.314;2024-01-06T02:51:33;14;11;
36453;PMS5003;22478;51.740;-1.314;2024-01-06T02:54:00;13;12;
36453;PMS5003;22478;51.740;-1.314;2024-01-06T02:56:27;15;12;
36453;PMS5003;22478;51.740;-1.314;2024-01-06T02:58:54;13;9;
36453;PMS5003;22478;51.740;-1.314;2024-01-06T03:01:22;15;11;
36453;PMS5003;22478;51.740;-1.314;2024-01-06T03:03:48;15;12;
36453;PMS5003;22478;51.740;-1.314;2024-01-06T03:06:16;11;9;
36453;PMS5003;22478;51.740;-1.314;2024-01-06T03:08:43;9;9;
36453;PMS5003;22478;51.740;-1.314;2024-01-06T03:11:10;9;9;
36453;PMS5003;22478;51.740;-1.314;2024-01-06T03:13:37;10;9;
36453;PMS5003;22478;51.740;-1.314;2024-01-06T03:16:04;13;10;
36453;PMS5003;22478;51.740;-1.314;2024-01-06T03:18:32;11;8;
36453;PMS5003;22478;51.740;-1.314;2024-01-06T03:21:00;12;11;
36453;PMS5003;22478;51.740;-1.314;2024-01-06T03:23:27;14;10;
36453;PMS5003;22478;51.740;-1.314;2024-01-06T03:25:55;12;10;
36453;PMS5003;22478;51.740;-1.314;2024-01-06T03:28:22;10;9;
36453;PMS5003;22478;51.740;-1.314;2024-01-06T03:30:49;14;12;
36453;PMS5003;22478;51.740;-1.314;2024-01-06T03:33:16;10;8;
36453;PMS5003;22478;51.740;-1.314;2024-01-06T03:35:43;10;9;
36453;PMS5003;22478;51.740;-1.314;2024-01-06T03:38:10;9;9;
36453;PMS5003;22478;51.740;-1.314;2024-01-06T03:40:37;9;9;
36453;PMS5003;22478;51.740;-1.314;2024-01-06T03:43:05;10;9;
36453;PMS5003;22478;51.740;-1.314;2024-01-06T03:45:33;11;9;
36453;PMS5003;22478;51.740;-1.314;2024-01-06T03:47:59;8;8;
36453;PMS5003;22478;51.740;-1.314;2024-01-06T03:50:27;9;7;
36453;PMS5003;22478;51.740;-1.314;2024-01-06T03:52:54;11;7;
36453;PMS5003;22478;51.740;-1.314;2024-01-06T03:55:21;7;6;
36453;PMS5003;22478;51.740;-1.314;2024-01-06T03:57:49;7;7;
36453;PMS5003;22478;51.740;-1.314;2024-01-06T04:00:16;9;9;
36453;PMS5003;22478;51.740;-1.314;2024-01-06T04:02:44;9;8;
36453;PMS5003;22478;51.740;-1.314;2024-01-06T04:05:11;12;9;
36453;PMS5003;22478;51.740;-1.314;2024-01-06T04:07:38;10;9;
36453;PMS5003;22478;51.740;-1.314;2024-01-06T04:10:06;13;11;
36453;PMS5003;22478;51.740;-1.314;2024-01-06T04:12:33;10;9;
36453;PMS5003;22478;51.740;-1.314;2024-01-06T04:15:01;13;10;
36453;PMS5003;22478;51.740;-1.314;2024-01-06T04:17:28;14;11;
36453;PMS5003;22478;51.740;-1.314;2024-01-06T04:19:56;11;9;
36453;PMS5003;22478;51.740;-1.314;2024-01-06T04:22:23;15;12;
36453;PMS5003;22478;51.740;-1.314;2024-01-06T04:24:51;10;10;
36453;PMS5003;22478;51.740;-1.314;2024-01-06T04:27:18;15;11;
36453;PMS5003;22478;51.740;-1.314;2024-01-06T04:29:45;15;11;
36453;PMS5003;22478;51.740;-1.314;2024-01-06T04:32:12;9;9;
36453;PMS5003;22478;51.740;-1.314;2024-01-06T04:34:40;11;11;
36453;PMS5003;22478;51.740;-1.314;2024-01-06T04:37:06;14;8;
36453;PMS5003;22478;51.740;-1.314;2024-01-06T04:39:34;15;13;
36453;PMS5003;22478;51.740;-1.314;2024-01-06T04:42:01;11;9;
36453;PMS5003;22478;51.740;-1.314;2024-01-06T04:44:29;12;12;
36453;PMS5003;22478;51.740;-1.314;2024-01-06T04:46:56;14;13;
36453;PMS5003;22478;51.740;-1.314;2024-01-06T04:49:23;16;12;
36453;PMS5003;22478;51.740;-1.314;2024-01-06T04:51:51;17;14;
36453;PMS5003;22478;51.740;-1.314;2024-01-06T04:54:18;17;14;
36453;PMS5003;22478;51.740;-1.314;2024-01-06T04:56:45;18;13;
36453;PMS5003;22478;51.740;-1.314;2024-01-06T04:59:12;18;16;
36453;PMS5003;22478;51.740;-1.314;2024-01-06T05:01:39;18;18;
36453;PMS5003;22478;51.740;-1.314;2024-01-06T05:04:07;23;18;
36453;PMS5003;22478;51.740;-1.314;2024-01-06T05:06:34;23;19;
36453;PMS5003;22478;51.740;-1.314;2024-01-06T05:09:02;15;15;
36453;PMS5003;22478;51.740;-1.314;2024-01-06T05:11:29;17;15;
36453;PMS5003;22478;51.740;-1.314;2024-01-06T05:13:56;19;13;
36453;PMS5003;22478;51.740;-1.314;2024-01-06T05:16:23;19;14;
36453;PMS5003;22478;51.740;-1.314;2024-01-06T05:18:50;18;17;
36453;PMS5003;22478;51.740;-1.314;2024-01-06T05:21:18;16;14;
36453;PMS5003;22478;51.740;-1.314;2024-01-06T05:23:45;16;13;
36453;PMS5003;22478;51.740;-1.314;2024-01-06T05:26:13;23;17;
36453;PMS5003;22478;51.740;-1.314;2024-01-06T05:28:39;15;13;
36453;PMS5003;22478;51.740;-1.314;2024-01-06T05:31:07;22;18;
36453;PMS5003;22478;51.740;-1.314;2024-01-06T05:33:34;19;19;
36453;PMS5003;22478;51.740;-1.314;2024-01-06T05:36:02;20;16;
36453;PMS5003;22478;51.740;-1.314;2024-01-06T05:38:30;19;17;
36453;PMS5003;22478;51.740;-1.314;2024-01-06T05:40:57;26;18;
36453;PMS5003;22478;51.740;-1.314;2024-01-06T05:43:24;19;17;
36453;PMS5003;22478;51.740;-1.314;2024-01-06T05:45:52;18;14;
36453;PMS5003;22478;51.740;-1.314;2024-01-06T05:48:19;18;13;
36453;PMS5003;22478;51.740;-1.314;2024-01-06T05:50:47;14;11;
36453;PMS5003;22478;51.740;-1.314;2024-01-06T05:53:14;17;14;
36453;PMS5003;22478;51.740;-1.314;2024-01-06T05:55:42;16;16;
36453;PMS5003;22478;51.740;-1.314;2024-01-06T05:58:09;17;13;
36453;PMS5003;22478;51.740;-1.314;2024-01-06T06:00:35;17;13;
36453;PMS5003;22478;51.740;-1.314;2024-01-06T06:03:03;14;14;
36453;PMS5003;22478;51.740;-1.314;2024-01-06T06:05:30;10;10;
36453;PMS5003;22478;51.740;-1.314;2024-01-06T06:07:58;18;13;
36453;PMS5003;22478;51.740;-1.314;2024-01-06T06:10:25;14;14;
36453;PMS5003;22478;51.740;-1.314;2024-01-06T06:12:52;17;13;
36453;PMS5003;22478;51.740;-1.314;2024-01-06T06:15:19;14;13;
36453;PMS5003;22478;51.740;-1.314;2024-01-06T06:17:46;18;12;
36453;PMS5003;22478;51.740;-1.314;2024-01-06T06:20:14;18;14;
36453;PMS5003;22478;51.740;-1.314;2024-01-06T06:22:41;18;17;
36453;PMS5003;22478;51.740;-1.314;2024-01-06T06:25:08;18;13;
36453;PMS5003;22478;51.740;-1.314;2024-01-06T06:27:35;18;13;
36453;PMS5003;22478;51.740;-1.314;2024-01-06T06:30:03;12;12;
36453;PMS5003;22478;51.740;-1.314;2024-01-06T06:32:31;14;10;
36453;PMS5003;22478;51.740;-1.314;2024-01-06T06:34:58;16;16;
36453;PMS5003;22478;51.740;-1.314;2024-01-06T06:37:25;14;12;
36453;PMS5003;22478;51.740;-1.314;2024-01-06T06:39:53;15;12;
36453;PMS5003;22478;51.740;-1.314;2024-01-06T06:42:20;15;10;
36453;PMS5003;22478;51.740;-1.314;2024-01-06T06:44:47;11;11;
36453;PMS5003;22478;51.740;-1.314;2024-01-06T06:47:14;16;8;
36453;PMS5003;22478;51.740;-1.314;2024-01-06T06:49:41;10;9;
36453;PMS5003;22478;51.740;-1.314;2024-01-06T06:52:08;10;9;
36453;PMS5003;22478;51.740;-1.314;2024-01-06T06:54:35;10;10;
36453;PMS5003;22478;51.740;-1.314;2024-01-06T06:57:03;11;10;
36453;PMS5003;22478;51.740;-1.314;2024-01-06T06:59:30;16;14;
36453;PMS5003;22478;51.740;-1.314;2024-01-06T07:01:57;10;10;
36453;PMS5003;22478;51.740;-1.314;2024-01-06T07:04:24;11;11;
36453;PMS5003;22478;51.740;-1.314;2024-01-06T07:06:51;10;10;
36453;PMS5003;22478;51.740;-1.314;2024-01-06T07:09:19;14;14;
36453;PMS5003;22478;51.740;-1.314;2024-01-06T07:11:46;18;11;
36453;PMS5003;22478;51.740;-1.314;2024-01-06T07:14:13;13;13;
36453;PMS5003;22478;51.740;-1.314;2024-01-06T07:16:40;14;11;
36453;PMS5003;22478;51.740;-1.314;2024-01-06T07:19:07;15;12;
36453;PMS5003;22478;51.740;-1.314;2024-01-06T07:21:35;11;11;
36453;PMS5003;22478;51.740;-1.314;2024-01-06T07:24:03;14;11;
36453;PMS5003;22478;51.740;-1.314;2024-01-06T07:26:30;14;11;
36453;PMS5003;22478;51.740;-1.314;2024-01-06T07:28:57;11;11;
36453;PMS5003;22478;51.740;-1.314;2024-01-06T07:31:25;12;10;
36453;PMS5003;22478;51.740;-1.314;2024-01-06T07:33:52;11;9;
36453;PMS5003;22478;51.740;-1.314;2024-01-06T07:36:19;12;10;
36453;PMS5003;22478;51.740;-1.314;2024-01-06T07:38:46;10;9;
36453;PMS5003;22478;51.740;-1.314;2024-01-06T07:41:14;12;9;
36453;PMS5003;22478;51.740;-1.314;2024-01-06T07:43:41;8;7;
36453;PMS5003;22478;51.740;-1.314;2024-01-06T07:46:08;15;15;
36453;PMS5003;22478;51.740;-1.314;2024-01-06T07:48:35;12;9;
36453;PMS5003;22478;51.740;-1.314;2024-01-06T07:51:03;10;8;
36453;PMS5003;22478;51.740;-1.314;2024-01-06T07:53:30;9;8;
36453;PMS5003;22478;51.740;-1.314;2024-01-06T07:55:57;11;10;
36453;PMS5003;22478;51.740;-1.314;2024-01-06T07:58:24;9;8;
36453;PMS5003;22478;51.740;-1.314;2024-01-06T08:00:51;9;8;
36453;PMS5003;22478;51.740;-1.314;2024-01-06T08:03:19;9;8;
36453;PMS5003;22478;51.740;-1.314;2024-01-06T08:05:46;9;9;
36453;PMS5003;22478;51.740;-1.314;2024-01-06T08:08:13;9;8;
36453;PMS5003;22478;51.740;-1.314;2024-01-06T08:10:40;9;7;
36453;PMS5003;22478;51.740;-1.314;2024-01-06T08:13:07;10;6;
36453;PMS5003;22478;51.740;-1.314;2024-01-06T08:15:35;9;7;
36453;PMS5003;22478;51.740;-1.314;2024-01-06T08:18:02;7;7;
36453;PMS5003;22478;51.740;-1.314;2024-01-06T08:20:30;7;7;
36453;PMS5003;22478;51.740;-1.314;2024-01-06T08:22:57;6;5;
36453;PMS5003;22478;51.740;-1.314;2024-01-06T08:25:24;6;6;
36453;PMS5003;22478;51.740;-1.314;2024-01-06T08:27:51;7;7;
36453;PMS5003;22478;51.740;-1.314;2024-01-06T08:30:19;6;6;
36453;PMS5003;22478;51.740;-1.314;2024-01-06T08:32:46;7;5;
36453;PMS5003;22478;51.740;-1.314;2024-01-06T08:35:14;5;5;
36453;PMS5003;22478;51.740;-1.314;2024-01-06T08:37:41;5;5;
36453;PMS5003;22478;51.740;-1.314;2024-01-06T08:40:09;6;5;
36453;PMS5003;22478;51.740;-1.314;2024-01-06T08:42:37;7;5;
36453;PMS5003;22478;51.740;-1.314;2024-01-06T08:45:04;8;5;
36453;PMS5003;22478;51.740;-1.314;2024-01-06T08:47:32;9;7;
36453;PMS5003;22478;51.740;-1.314;2024-01-06T08:49:59;9;8;
36453;PMS5003;22478;51.740;-1.314;2024-01-06T08:52:26;11;6;
36453;PMS5003;22478;51.740;-1.314;2024-01-06T08:54:53;10;6;
36453;PMS5003;22478;51.740;-1.314;2024-01-06T08:57:21;7;5;
36453;PMS5003;22478;51.740;-1.314;2024-01-06T08:59:48;9;6;
36453;PMS5003;22478;51.740;-1.314;2024-01-06T09:02:15;5;5;
36453;PMS5003;22478;51.740;-1.314;2024-01-06T09:04:42;7;5;
36453;PMS5003;22478;51.740;-1.314;2024-01-06T09:07:09;6;5;
36453;PMS5003;22478;51.740;-1.314;2024-01-06T09:09:36;7;6;
36453;PMS5003;22478;51.740;-1.314;2024-01-06T09:12:04;5;5;
36453;PMS5003;22478;51.740;-1.314;2024-01-06T09:14:32;4;4;
36453;PMS5003;22478;51.740;-1.314;2024-01-06T09:16:59;6;4;
36453;PMS5003;22478;51.740;-1.314;2024-01-06T09:19:26;6;5;
36453;PMS5003;22478;51.740;-1.314;2024-01-06T09:21:53;6;5;
36453;PMS5003;22478;51.740;-1.314;2024-01-06T09:24:20;5;5;
36453;PMS5003;22478;51.740;-1.314;2024-01-06T09:26:48;3;3;
36453;PMS5003;22478;51.740;-1.314;2024-01-06T09:29:15;8;7;
36453;PMS5003;22478;51.740;-1.314;2024-01-06T09:31:42;7;5;
36453;PMS5003;22478;51.740;-1.314;2024-01-06T09:34:09;5;5;
36453;PMS5003;22478;51.740;-1.314;2024-01-06T09:36:37;7;5;
36453;PMS5003;22478;51.740;-1.314;2024-01-06T09:39:04;6;6;
36453;PMS5003;22478;51.740;-1.314;2024-01-06T09:41:31;9;7;
36453;PMS5003;22478;51.740;-1.314;2024-01-06T09:43:59;8;6;
36453;PMS5003;22478;51.740;-1.314;2024-01-06T09:46:26;6;5;
36453;PMS5003;22478;51.740;-1.314;2024-01-06T09:48:55;6;6;
36453;PMS5003;22478;51.740;-1.314;2024-01-06T09:51:23;7;5;
36453;PMS5003;22478;51.740;-1.314;2024-01-06T09:53:52;10;8;
36453;PMS5003;22478;51.740;-1.314;2024-01-06T09:56:24;4;4;
36453;PMS5003;22478;51.740;-1.314;2024-01-06T09:58:52;8;8;
36453;PMS5003;22478;51.740;-1.314;2024-01-06T10:01:20;18;13;
36453;PMS5003;22478;51.740;-1.314;2024-01-06T10:03:48;10;9;
36453;PMS5003;22478;51.740;-1.314;2024-01-06T10:06:16;12;7;
36453;PMS5003;22478;51.740;-1.314;2024-01-06T10:08:43;8;8;
36453;PMS5003;22478;51.740;-1.314;2024-01-06T10:11:14;9;8;
36453;PMS5003;22478;51.740;-1.314;2024-01-06T10:13:41;9;9;
36453;PMS5003;22478;51.740;-1.314;2024-01-06T10:16:09;9;9;
36453;PMS5003;22478;51.740;-1.314;2024-01-06T10:18:36;8;8;
36453;PMS5003;22478;51.740;-1.314;2024-01-06T10:21:04;13;10;
36453;PMS5003;22478;51.740;-1.314;2024-01-06T10:23:32;12;9;
36453;PMS5003;22478;51.740;-1.314;2024-01-06T10:25:59;12;12;
36453;PMS5003;22478;51.740;-1.314;2024-01-06T10:28:27;12;7;
36453;PMS5003;22478;51.740;-1.314;2024-01-06T10:30:54;14;9;
36453;PMS5003;22478;51.740;-1.314;2024-01-06T10:33:22;13;8;
36453;PMS5003;22478;51.740;-1.314;2024-01-06T10:35:50;15;11;
36453;PMS5003;22478;51.740;-1.314;2024-01-06T10:38:19;9;7;
36453;PMS5003;22478;51.740;-1.314;2024-01-06T10:40:56;15;11;
36453;PMS5003;22478;51.740;-1.314;2024-01-06T10:43:25;14;11;
36453;PMS5003;22478;51.740;-1.314;2024-01-06T10:45:53;13;8;
36453;PMS5003;22478;51.740;-1.314;2024-01-06T10:48:21;9;9;
36453;PMS5003;22478;51.740;-1.314;2024-01-06T10:50:50;11;10;
36453;PMS5003;22478;51.740;-1.314;2024-01-06T10:53:18;7;6;
36453;PMS5003;22478;51.740;-1.314;2024-01-06T10:55:47;7;7;
36453;PMS5003;22478;51.740;-1.314;2024-01-06T10:58:16;9;8;
36453;PMS5003;22478;51.740;-1.314;2024-01-06T11:00:44;14;9;
36453;PMS5003;22478;51.740;-1.314;2024-01-06T11:03:11;10;6;
36453;PMS5003;22478;51.740;-1.314;2024-01-06T11:05:40;11;8;
36453;PMS5003;22478;51.740;-1.314;2024-01-06T11:08:08;12;9;
36453;PMS5003;22478;51.740;-1.314;2024-01-06T11:10:37;7;5;
36453;PMS5003;22478;51.740;-1.314;2024-01-06T11:13:08;7;6;
36453;PMS5003;22478;51.740;-1.314;2024-01-06T11:15:40;6;6;
36453;PMS5003;22478;51.740;-1.314;2024-01-06T11:18:17;9;9;
36453;PMS5003;22478;51.740;-1.314;2024-01-06T11:21:33;7;6;
36453;PMS5003;22478;51.740;-1.314;2024-01-06T11:24:18;15;7;
36453;PMS5003;22478;51.740;-1.314;2024-01-06T11:26:49;9;8;
36453;PMS5003;22478;51.740;-1.314;2024-01-06T11:29:17;10;7;
36453;PMS5003;22478;51.740;-1.314;2024-01-06T11:32:18;11;8;
36453;PMS5003;22478;51.740;-1.314;2024-01-06T11:34:47;6;6;
36453;PMS5003;22478;51.740;-1.314;2024-01-06T11:37:17;8;8;
36453;PMS5003;22478;51.740;-1.314;2024-01-06T11:39:46;6;6;
36453;PMS5003;22478;51.740;-1.314;2024-01-06T11:42:13;12;10;
36453;PMS5003;22478;51.740;-1.314;2024-01-06T11:44:43;9;8;
36453;PMS5003;22478;51.740;-1.314;2024-01-06T11:47:11;5;5;
36453;PMS5003;22478;51.740;-1.314;2024-01-06T11:49:39;8;8;
36453;PMS5003;22478;51.740;-1.314;2024-01-06T11:52:11;8;7;
36453;PMS5003;22478;51.740;-1.314;2024-01-06T11:54:38;7;7;
36453;PMS5003;22478;51.740;-1.314;2024-01-06T11:57:07;8;6;
36453;PMS5003;22478;51.740;-1.314;2024-01-06T11:59:33;8;7;
36453;PMS5003;22478;51.740;-1.314;2024-01-06T12:02:01;10;8;
36453;PMS5003;22478;51.740;-1.314;2024-01-06T12:04:28;10;7;
36453;PMS5003;22478;51.740;-1.314;2024-01-06T12:07:04;6;6;
36453;PMS5003;22478;51.740;-1.314;2024-01-06T12:09:32;7;7;
36453;PMS5003;22478;51.740;-1.314;2024-01-06T12:12:01;6;6;
36453;PMS5003;22478;51.740;-1.314;2024-01-06T12:14:28;13;12;
36453;PMS5003;22478;51.740;-1.314;2024-01-06T12:16:56;8;8;
36453;PMS5003;22478;51.740;-1.314;2024-01-06T12:19:24;11;8;
36453;PMS5003;22478;51.740;-1.314;2024-01-06T12:21:51;10;8;
36453;PMS5003;22478;51.740;-1.314;2024-01-06T12:24:18;7;7;
36453;PMS5003;22478;51.740;-1.314;2024-01-06T12:26:46;10;10;
36453;PMS5003;22478;51.740;-1.314;2024-01-06T12:29:14;10;8;
36453;PMS5003;22478;51.740;-1.314;2024-01-06T12:31:43;9;9;
36453;PMS5003;22478;51.740;-1.314;2024-01-06T12:34:11;13;7;
36453;PMS5003;22478;51.740;-1.314;2024-01-06T12:36:38;11;11;
36453;PMS5003;22478;51.740;-1.314;2024-01-06T12:39:10;11;9;
36453;PMS5003;22478;51.740;-1.314;2024-01-06T12:41:38;9;8;
36453;PMS5003;22478;51.740;-1.314;2024-01-06T12:44:05;15;12;
36453;PMS5003;22478;51.740;-1.314;2024-01-06T12:46:33;9;8;
36453;PMS5003;22478;51.740;-1.314;2024-01-06T12:49:01;9;9;
36453;PMS5003;22478;51.740;-1.314;2024-01-06T12:51:29;10;8;
36453;PMS5003;22478;51.740;-1.314;2024-01-06T12:53:56;8;8;
36453;PMS5003;22478;51.740;-1.314;2024-01-06T12:56:24;9;9;
36453;PMS5003;22478;51.740;-1.314;2024-01-06T12:58:52;10;8;
36453;PMS5003;22478;51.740;-1.314;2024-01-06T13:01:19;10;8;
36453;PMS5003;22478;51.740;-1.314;2024-01-06T13:03:46;9;9;
36453;PMS5003;22478;51.740;-1.314;2024-01-06T13:06:14;14;11;
36453;PMS5003;22478;51.740;-1.314;2024-01-06T13:08:41;10;9;
36453;PMS5003;22478;51.740;-1.314;2024-01-06T13:11:09;9;9;
36453;PMS5003;22478;51.740;-1.314;2024-01-06T13:13:37;10;8;
36453;PMS5003;22478;51.740;-1.314;2024-01-06T13:16:04;10;9;
36453;PMS5003;22478;51.740;-1.314;2024-01-06T13:18:32;8;7;
36453;PMS5003;22478;51.740;-1.314;2024-01-06T13:20:59;13;8;
36453;PMS5003;22478;51.740;-1.314;2024-01-06T13:23:26;10;9;
36453;PMS5003;22478;51.740;-1.314;2024-01-06T13:25:53;8;8;
36453;PMS5003;22478;51.740;-1.314;2024-01-06T13:28:20;10;8;
36453;PMS5003;22478;51.740;-1.314;2024-01-06T13:30:48;9;9;
36453;PMS5003;22478;51.740;-1.314;2024-01-06T13:33:14;10;9;
36453;PMS5003;22478;51.740;-1.314;2024-01-06T13:35:42;13;9;
36453;PMS5003;22478;51.740;-1.314;2024-01-06T13:38:10;14;10;
36453;PMS5003;22478;51.740;-1.314;2024-01-06T13:40:37;9;8;
36453;PMS5003;22478;51.740;-1.314;2024-01-06T13:43:04;12;11;
36453;PMS5003;22478;51.740;-1.314;2024-01-06T13:45:31;11;10;
36453;PMS5003;22478;51.740;-1.314;2024-01-06T13:47:58;12;9;
36453;PMS5003;22478;51.740;-1.314;2024-01-06T13:50:25;11;10;
36453;PMS5003;22478;51.740;-1.314;2024-01-06T13:52:52;10;10;
36453;PMS5003;22478;51.740;-1.314;2024-01-06T13:55:19;17;9;
36453;PMS5003;22478;51.740;-1.314;2024-01-06T13:57:47;14;12;
36453;PMS5003;22478;51.740;-1.314;2024-01-06T14:00:14;12;10;
36453;PMS5003;22478;51.740;-1.314;2024-01-06T14:02:41;11;9;
36453;PMS5003;22478;51.740;-1.314;2024-01-06T14:05:08;14;11;
36453;PMS5003;22478;51.740;-1.314;2024-01-06T14:07:35;17;13;
36453;PMS5003;22478;51.740;-1.314;2024-01-06T14:10:03;11;9;
36453;PMS5003;22478;51.740;-1.314;2024-01-06T14:12:31;17;11;
36453;PMS5003;22478;51.740;-1.314;2024-01-06T14:14:59;12;11;
36453;PMS5003;22478;51.740;-1.314;2024-01-06T14:17:26;12;12;
36453;PMS5003;22478;51.740;-1.314;2024-01-06T14:19:53;15;12;
36453;PMS5003;22478;51.740;-1.314;2024-01-06T14:22:20;15;10;
36453;PMS5003;22478;51.740;-1.314;2024-01-06T14:24:47;15;11;
36453;PMS5003;22478;51.740;-1.314;2024-01-06T14:27:15;12;9;
36453;PMS5003;22478;51.740;-1.314;2024-01-06T14:29:42;10;10;
36453;PMS5003;22478;51.740;-1.314;2024-01-06T14:32:10;14;10;
36453;PMS5003;22478;51.740;-1.314;2024-01-06T14:34:37;9;9;
36453;PMS5003;22478;51.740;-1.314;2024-01-06T14:37:04;12;9;
36453;PMS5003;22478;51.740;-1.314;2024-01-06T14:39:31;10;10;
36453;PMS5003;22478;51.740;-1.314;2024-01-06T14:41:58;6;6;
36453;PMS5003;22478;51.740;-1.314;2024-01-06T14:44:26;9;8;
36453;PMS5003;22478;51.740;-1.314;2024-01-06T14:46:53;7;7;
36453;PMS5003;22478;51.740;-1.314;2024-01-06T14:49:20;9;6;
36453;PMS5003;22478;51.740;-1.314;2024-01-06T14:51:47;9;7;
36453;PMS5003;22478;51.740;-1.314;2024-01-06T14:54:14;7;7;
36453;PMS5003;22478;51.740;-1.314;2024-01-06T14:56:41;11;9;
36453;PMS5003;22478;51.740;-1.314;2024-01-06T14:59:08;8;7;
36453;PMS5003;22478;51.740;-1.314;2024-01-06T15:01:36;7;4;
36453;PMS5003;22478;51.740;-1.314;2024-01-06T15:04:04;6;5;
36453;PMS5003;22478;51.740;-1.314;2024-01-06T15:06:31;7;7;
36453;PMS5003;22478;51.740;-1.314;2024-01-06T15:08:59;7;7;
36453;PMS5003;22478;51.740;-1.314;2024-01-06T15:11:26;9;6;
36453;PMS5003;22478;51.740;-1.314;2024-01-06T15:13:53;6;6;
36453;PMS5003;22478;51.740;-1.314;2024-01-06T15:16:20;7;7;
36453;PMS5003;22478;51.740;-1.314;2024-01-06T15:18:48;7;7;
36453;PMS5003;22478;51.740;-1.314;2024-01-06T15:21:15;5;5;
36453;PMS5003;22478;51.740;-1.314;2024-01-06T15:23:42;6;5;
36453;PMS5003;22478;51.740;-1.314;2024-01-06T15:26:09;6;6;
36453;PMS5003;22478;51.740;-1.314;2024-01-06T15:28:36;5;4;
36453;PMS5003;22478;51.740;-1.314;2024-01-06T15:31:03;5;5;
36453;PMS5003;22478;51.740;-1.314;2024-01-06T15:33:31;7;7;
36453;PMS5003;22478;51.740;-1.314;2024-01-06T15:35:58;7;6;
36453;PMS5003;22478;51.740;-1.314;2024-01-06T15:38:25;5;5;
36453;PMS5003;22478;51.740;-1.314;2024-01-06T15:40:52;5;5;
36453;PMS5003;22478;51.740;-1.314;2024-01-06T15:43:19;8;6;
36453;PMS5003;22478;51.740;-1.314;2024-01-06T15:45:46;6;5;
36453;PMS5003;22478;51.740;-1.314;2024-01-06T15:48:13;5;3;
36453;PMS5003;22478;51.740;-1.314;2024-01-06T15:50:40;6;4;
36453;PMS5003;22478;51.740;-1.314;2024-01-06T15:53:08;5;4;
36453;PMS5003;22478;51.740;-1.314;2024-01-06T15:55:35;7;5;
36453;PMS5003;22478;51.740;-1.314;2024-01-06T15:58:02;8;4;
36453;PMS5003;22478;51.740;-1.314;2024-01-06T16:00:29;8;6;
36453;PMS5003;22478;51.740;-1.314;2024-01-06T16:02:56;6;5;
36453;PMS5003;22478;51.740;-1.314;2024-01-06T16:05:24;7;5;
36453;PMS5003;22478;51.740;-1.314;2024-01-06T16:07:51;8;6;
36453;PMS5003;22478;51.740;-1.314;2024-01-06T16:10:19;7;6;
36453;PMS5003;22478;51.740;-1.314;2024-01-06T16:12:46;8;5;
36453;PMS5003;22478;51.740;-1.314;2024-01-06T16:15:13;6;4;
36453;PMS5003;22478;51.740;-1.314;2024-01-06T16:17:41;4;4;
36453;PMS5003;22478;51.740;-1.314;2024-01-06T16:20:08;5;5;
36453;PMS5003;22478;51.740;-1.314;2024-01-06T16:22:36;4;4;